Time;durP1;ratioP1;P1;durP2;ratioP2;P2;SDS_P1;SDS_P2;PMS_P1;PMS_P2;Temp;Humidity;BMP_temperature;BMP_pressure;BME280_temperature;BME280_humidity;BME280_pressure;Samples;Min_cycle;Max_cycle;Signal;HPM_P1;HPM_P2
2022/11/27 00:03:36;;;;;;;76.57;14.40;;;4.80;99.90;;;;;;5034678;28;20231;-88
2022/11/27 00:10:09;;;;;;;73.82;13.82;;;4.80;99.90;;;;;;5015189;28;20243;-88
2022/11/27 00:12:35;;;;;;;73.03;13.10;;;4.90;99.90;;;;;;5011555;28;20176;-88
2022/11/27 00:15:52;;;;;;;78.83;15.00;;;4.80;99.90;;;;;;5015969;28;20173;-88
2022/11/27 00:18:19;;;;;;;78.57;14.00;;;4.90;99.90;;;;;;4993050;28;20422;-88
2022/11/27 00:23:57;;;;;;;74.75;13.07;;;5.00;99.90;;;;;;4982378;28;20261;-88
2022/11/27 00:26:28;;;;;;;76.63;10.48;;;5.00;99.90;;;;;;4976533;28;20579;-88
2022/11/27 00:29:32;;;;;;;78.70;12.18;;;5.00;99.90;;;;;;5014008;28;20609;-88
2022/11/27 00:32:43;;;;;;;74.60;11.52;;;5.00;99.90;;;;;;5030115;28;20181;-88
2022/11/27 00:35:34;;;;;;;71.85;11.63;;;5.00;99.90;;;;;;5014893;28;20251;-88
2022/11/27 00:38:44;;;;;;;70.93;13.63;;;5.00;99.90;;;;;;5015140;28;20204;-88
2022/11/27 00:41:27;;;;;;;73.18;14.23;;;5.00;99.90;;;;;;5020877;28;20612;-88
2022/11/27 00:44:02;;;;;;;73.13;15.45;;;5.00;99.90;;;;;;5015481;28;20796;-88
2022/11/27 00:47:16;;;;;;;;;;;;;;;;;;;;;
2022/11/27 00:50:11;;;;;;;;;;;;;;;;;;;;;
2022/11/27 00:53:42;;;;;;;;;;;;;;;;;;;;;
2022/11/27 00:57:27;;;;;;;70.20;13.15;;;5.20;99.90;;;;;;5031980;28;20185;-88
2022/11/27 01:00:18;;;;;;;;;;;;;;;;;;;;;
2022/11/27 01:03:13;;;;;;;72.05;15.02;;;5.10;99.90;;;;;;4992065;28;20708;-88
2022/11/27 01:05:57;;;;;;;74.05;15.35;;;5.20;99.90;;;;;;4991174;28;20189;-88
2022/11/27 01:09:10;;;;;;;;;;;;;;;;;;;;;
2022/11/27 01:11:43;;;;;;;79.55;12.82;;;5.20;99.90;;;;;;5037445;22;20224;-88
2022/11/27 01:14:19;;;;;;;75.00;13.85;;;5.20;99.90;;;;;;5031926;28;20173;-88
2022/11/27 01:16:58;;;;;;;73.85;15.43;;;5.10;99.90;;;;;;5033040;28;20169;-88
2022/11/27 01:19:42;;;;;;;83.72;13.65;;;5.20;99.90;;;;;;5031545;28;20597;-87
2022/11/27 01:22:08;;;;;;;72.28;13.43;;;5.20;99.90;;;;;;5036667;28;20154;-88
2022/11/27 01:25:06;;;;;;;74.75;13.82;;;5.20;99.90;;;;;;5035219;28;20208;-88
2022/11/27 01:27:35;;;;;;;71.60;12.23;;;5.20;99.90;;;;;;5035475;28;20187;-88
2022/11/27 01:30:00;;;;;;;75.53;13.80;;;5.20;99.90;;;;;;5035412;28;20272;-88
2022/11/27 01:32:26;;;;;;;85.70;12.87;;;5.20;99.90;;;;;;5035577;28;20261;-88
2022/11/27 01:35:05;;;;;;;80.43;14.43;;;5.20;99.90;;;;;;5035568;28;20642;-88
2022/11/27 01:37:36;;;;;;;77.80;13.88;;;5.10;99.90;;;;;;5035432;28;20157;-88
2022/11/27 01:40:10;;;;;;;77.30;14.05;;;5.20;99.90;;;;;;5038020;28;20184;-88
2022/11/27 01:42:36;;;;;;;76.35;13.93;;;5.20;99.90;;;;;;5035558;28;20163;-88
2022/11/27 01:45:08;;;;;;;81.38;15.20;;;5.20;99.90;;;;;;5036321;28;20176;-88
2022/11/27 01:47:45;;;;;;;76.95;14.77;;;5.10;99.90;;;;;;5035957;28;20272;-88
2022/11/27 01:50:22;;;;;;;74.68;14.23;;;5.10;99.90;;;;;;5036359;28;20181;-88
2022/11/27 01:52:57;;;;;;;73.85;12.80;;;5.10;99.90;;;;;;5035218;28;20168;-88
2022/11/27 01:55:31;;;;;;;78.00;13.23;;;5.20;99.90;;;;;;5036538;28;20149;-88
2022/11/27 01:58:31;;;;;;;;;;;;;;;;;;;;;
2022/11/27 02:01:03;;;;;;;76.93;13.43;;;5.20;99.90;;;;;;5035675;28;20196;-88
2022/11/27 02:03:54;;;;;;;73.60;15.55;;;5.20;99.90;;;;;;5034818;28;20693;-88
2022/11/27 02:06:23;;;;;;;77.68;16.25;;;5.20;99.90;;;;;;5035235;28;20165;-88
2022/11/27 02:08:52;;;;;;;72.70;12.73;;;5.20;99.90;;;;;;5035963;28;20530;-88
2022/11/27 02:11:43;;;;;;;74.47;14.85;;;5.20;99.90;;;;;;5034382;28;20251;-88
2022/11/27 02:14:30;;;;;;;72.47;14.65;;;5.10;99.90;;;;;;5034900;28;20165;-88
2022/11/27 02:17:14;;;;;;;77.40;16.00;;;5.10;99.90;;;;;;5035831;28;20166;-88
2022/11/27 02:19:46;;;;;;;73.68;14.70;;;5.10;99.90;;;;;;5035252;28;20192;-88
2022/11/27 02:22:42;;;;;;;76.95;15.43;;;5.10;99.90;;;;;;5035129;28;20260;-88
2022/11/27 02:25:58;;;;;;;74.18;15.15;;;5.10;99.90;;;;;;5035670;28;20153;-88
2022/11/27 02:28:49;;;;;;;71.53;13.40;;;5.10;99.90;;;;;;5035596;28;20152;-88
2022/11/27 02:31:24;;;;;;;79.82;16.40;;;5.10;99.90;;;;;;5034354;28;20189;-89
2022/11/27 02:34:00;;;;;;;75.50;14.05;;;5.10;99.90;;;;;;5033034;28;20176;-88
2022/11/27 02:36:30;;;;;;;78.55;17.27;;;5.10;99.90;;;;;;5034228;28;20692;-88
2022/11/27 02:39:08;;;;;;;77.00;15.20;;;5.10;99.90;;;;;;5034101;28;20577;-88
2022/11/27 02:41:47;;;;;;;77.38;17.33;;;5.00;99.90;;;;;;5034324;28;20192;-88
2022/11/27 02:44:18;;;;;;;78.82;15.77;;;5.00;99.90;;;;;;5035674;28;20181;-88
2022/11/27 02:46:45;;;;;;;77.68;18.40;;;5.00;99.90;;;;;;5035286;28;20504;-88
2022/11/27 02:49:18;;;;;;;76.28;16.15;;;5.00;99.90;;;;;;5034050;28;20165;-88
2022/11/27 02:51:56;;;;;;;78.80;19.63;;;5.00;99.90;;;;;;5036132;28;20157;-88
2022/11/27 02:54:28;;;;;;;78.93;17.40;;;5.00;99.90;;;;;;5035938;28;20527;-88
2022/11/27 02:56:57;;;;;;;82.85;16.52;;;5.00;99.90;;;;;;5034190;28;20180;-88
2022/11/27 02:59:25;;;;;;;76.95;18.45;;;5.00;99.90;;;;;;5034156;28;20181;-88
2022/11/27 03:02:00;;;;;;;75.60;15.57;;;5.00;99.90;;;;;;5035232;28;20201;-88
2022/11/27 03:04:33;;;;;;;75.07;15.63;;;5.00;99.90;;;;;;5034743;28;20177;-88
2022/11/27 03:07:02;;;;;;;78.20;17.50;;;5.00;99.90;;;;;;5034977;28;20215;-88
2022/11/27 03:09:38;;;;;;;77.85;16.35;;;5.00;99.90;;;;;;5034930;28;20248;-88
2022/11/27 03:12:07;;;;;;;81.05;16.60;;;5.00;99.90;;;;;;5034614;28;20230;-88
2022/11/27 03:14:38;;;;;;;84.68;15.43;;;5.00;99.90;;;;;;5034929;28;20253;-88
2022/11/27 03:17:40;;;;;;;78.47;13.40;;;5.00;99.90;;;;;;5033769;28;20165;-88
2022/11/27 03:20:20;;;;;;;84.18;15.70;;;5.00;99.90;;;;;;5033540;28;20192;-88
2022/11/27 03:22:58;;;;;;;80.30;16.80;;;4.90;99.90;;;;;;5033632;28;20193;-88
2022/11/27 03:25:24;;;;;;;81.53;17.15;;;4.90;99.90;;;;;;5033378;28;20611;-88
2022/11/27 03:28:11;;;;;;;78.68;15.60;;;4.90;99.90;;;;;;5033206;28;20204;-88
2022/11/27 03:30:42;;;;;;;80.10;17.08;;;4.90;99.90;;;;;;5033101;28;20196;-88
2022/11/27 03:33:08;;;;;;;83.63;16.77;;;4.90;99.90;;;;;;5034789;28;20511;-88
2022/11/27 03:35:33;;;;;;;84.23;20.23;;;5.00;99.90;;;;;;5033232;28;20169;-88
2022/11/27 03:37:59;;;;;;;78.63;19.80;;;4.90;99.90;;;;;;5033206;28;20165;-88
2022/11/27 03:41:01;;;;;;;81.13;17.20;;;4.90;99.90;;;;;;5033123;28;20193;-88
2022/11/27 03:43:34;;;;;;;92.97;17.08;;;4.90;99.90;;;;;;5033824;28;20283;-88
2022/11/27 03:46:14;;;;;;;78.38;18.30;;;4.90;99.90;;;;;;5032807;28;20189;-88
2022/11/27 03:49:12;;;;;;;87.10;14.70;;;4.90;99.90;;;;;;5033372;28;20661;-88
2022/11/27 03:52:03;;;;;;;84.60;16.90;;;4.90;99.90;;;;;;5034216;28;20154;-88
2022/11/27 03:54:38;;;;;;;78.43;16.35;;;4.90;99.90;;;;;;5033851;28;20158;-88
2022/11/27 03:57:36;;;;;;;81.75;16.38;;;5.00;99.90;;;;;;5032607;28;20165;-88
2022/11/27 04:00:07;;;;;;;81.30;17.05;;;5.00;99.90;;;;;;5033604;28;20196;-88
2022/11/27 04:02:50;;;;;;;84.97;17.30;;;5.00;99.90;;;;;;5033665;28;20589;-88
2022/11/27 04:05:20;;;;;;;81.53;17.15;;;5.00;99.90;;;;;;5033691;28;20168;-88
2022/11/27 04:07:45;;;;;;;84.63;17.75;;;5.00;99.90;;;;;;5032478;28;20653;-88
2022/11/27 04:10:12;;;;;;;93.63;17.60;;;5.10;99.90;;;;;;5033665;28;20204;-88
2022/11/27 04:12:38;;;;;;;80.43;18.23;;;5.10;99.90;;;;;;5033228;28;20420;-88
2022/11/27 04:15:05;;;;;;;78.30;16.30;;;5.10;99.90;;;;;;5032200;28;20206;-88
2022/11/27 04:17:33;;;;;;;82.93;17.88;;;5.10;99.90;;;;;;5032123;28;20455;-88
2022/11/27 04:20:03;;;;;;;77.97;17.33;;;5.10;99.90;;;;;;5033368;28;20177;-88
2022/11/27 04:22:31;;;;;;;79.93;17.27;;;5.10;99.90;;;;;;5031954;28;20162;-88
2022/11/27 04:25:00;;;;;;;79.78;17.65;;;5.00;99.90;;;;;;5032457;28;20196;-88
2022/11/27 04:27:25;;;;;;;78.50;17.98;;;5.00;99.90;;;;;;5032059;28;20161;-88
2022/11/27 04:29:51;;;;;;;83.50;23.40;;;5.10;99.90;;;;;;5033187;28;20181;-88
2022/11/27 04:32:17;;;;;;;81.77;17.87;;;5.10;99.90;;;;;;5033598;28;20161;-88
2022/11/27 04:34:45;;;;;;;82.80;18.77;;;5.10;99.90;;;;;;5033240;28;20177;-88
2022/11/27 04:37:14;;;;;;;85.57;17.85;;;5.10;99.90;;;;;;5033862;28;20169;-88
2022/11/27 04:39:40;;;;;;;86.05;16.63;;;5.10;99.90;;;;;;5032639;28;20189;-88
2022/11/27 04:42:06;;;;;;;78.63;21.03;;;5.10;99.90;;;;;;5032204;28;20238;-88
2022/11/27 04:44:32;;;;;;;80.70;16.57;;;5.10;99.90;;;;;;5032966;28;20275;-88
2022/11/27 04:46:57;;;;;;;81.43;18.90;;;5.10;99.90;;;;;;5032663;28;20797;-87
2022/11/27 04:49:28;;;;;;;79.70;17.00;;;5.10;99.90;;;;;;5032325;28;20411;-88
2022/11/27 04:51:57;;;;;;;84.57;21.95;;;5.10;99.90;;;;;;5032335;28;20169;-88
2022/11/27 04:54:25;;;;;;;76.97;15.98;;;5.10;99.90;;;;;;5033476;28;20165;-88
2022/11/27 04:56:51;;;;;;;77.82;15.52;;;5.10;99.90;;;;;;5036476;28;20587;-88
2022/11/27 04:59:17;;;;;;;90.70;20.03;;;5.10;99.90;;;;;;5036105;28;20215;-87
2022/11/27 05:01:42;;;;;;;80.33;19.90;;;5.20;99.90;;;;;;5035738;28;20169;-88
2022/11/27 05:04:11;;;;;;;81.50;19.70;;;5.20;99.90;;;;;;5037075;28;20185;-88
2022/11/27 05:06:37;;;;;;;80.22;19.55;;;5.10;99.90;;;;;;5035756;28;20177;-88
2022/11/27 05:09:05;;;;;;;80.13;16.87;;;5.10;99.90;;;;;;5036974;28;20169;-88
2022/11/27 05:11:31;;;;;;;85.85;20.25;;;5.10;99.90;;;;;;5036898;28;20204;-88
2022/11/27 05:14:16;;;;;;;78.90;15.98;;;5.20;99.90;;;;;;5037099;28;20244;-88
2022/11/27 05:16:46;;;;;;;111.72;18.27;;;5.20;99.90;;;;;;5035656;28;20211;-88
2022/11/27 05:19:13;;;;;;;80.50;17.85;;;5.20;99.90;;;;;;5035456;28;20219;-87
2022/11/27 05:21:42;;;;;;;81.28;17.67;;;5.20;99.90;;;;;;5036779;28;20174;-88
2022/11/27 05:24:08;;;;;;;79.72;19.05;;;5.10;99.90;;;;;;5036621;28;20749;-88
2022/11/27 05:26:34;;;;;;;81.97;18.40;;;5.10;99.90;;;;;;5035718;28;20172;-88
2022/11/27 05:29:00;;;;;;;84.80;19.10;;;5.10;99.90;;;;;;5035637;28;20165;-88
2022/11/27 05:31:26;;;;;;;86.22;20.00;;;5.20;99.90;;;;;;5036568;28;20420;-88
2022/11/27 05:33:52;;;;;;;84.22;20.83;;;5.20;99.90;;;;;;5036610;28;20251;-88
2022/11/27 05:36:18;;;;;;;79.07;19.77;;;5.20;99.90;;;;;;5035313;28;20169;-88
2022/11/27 05:38:44;;;;;;;77.70;17.37;;;5.20;99.90;;;;;;5036051;28;20165;-88
2022/11/27 05:41:09;;;;;;;81.67;18.77;;;5.20;99.90;;;;;;5036539;28;20450;-88
2022/11/27 05:43:38;;;;;;;77.70;18.83;;;5.20;99.90;;;;;;5035062;28;20547;-88
2022/11/27 05:46:09;;;;;;;76.13;17.88;;;5.20;99.90;;;;;;5035033;28;20411;-88
2022/11/27 05:51:03;;;;;;;79.32;20.30;;;5.20;99.90;;;;;;5049549;28;20216;-86
2022/11/27 05:53:29;;;;;;;79.97;18.58;;;5.20;99.90;;;;;;5047534;28;20221;-86
2022/11/27 05:56:01;;;;;;;74.37;16.80;;;5.20;99.90;;;;;;5046578;28;20192;-86
2022/11/27 05:58:27;;;;;;;82.13;20.95;;;5.20;99.90;;;;;;5046163;28;20396;-87
2022/11/27 06:00:52;;;;;;;76.53;18.23;;;5.20;99.90;;;;;;5047920;28;20200;-87
2022/11/27 06:03:18;;;;;;;75.77;19.37;;;5.20;99.90;;;;;;5047345;28;20547;-86
2022/11/27 06:05:44;;;;;;;79.57;18.67;;;5.20;99.90;;;;;;5047268;28;20161;-87
2022/11/27 06:08:09;;;;;;;81.67;20.10;;;5.20;99.90;;;;;;5047262;28;20519;-86
2022/11/27 06:10:37;;;;;;;75.07;17.97;;;5.20;99.90;;;;;;5046755;28;20185;-86
2022/11/27 06:13:03;;;;;;;74.13;15.85;;;5.20;99.90;;;;;;5046048;28;20170;-87
2022/11/27 06:15:29;;;;;;;77.73;18.23;;;5.20;99.90;;;;;;5047873;28;20172;-86
2022/11/27 06:17:55;;;;;;;76.67;19.53;;;5.20;99.90;;;;;;5046213;28;20448;-87
2022/11/27 06:20:21;;;;;;;78.30;16.20;;;5.20;99.90;;;;;;5046927;28;20185;-86
2022/11/27 06:22:46;;;;;;;75.77;17.43;;;5.20;99.90;;;;;;5046076;28;20419;-86
2022/11/27 06:25:12;;;;;;;78.73;18.90;;;5.20;99.90;;;;;;5046542;28;20169;-86
2022/11/27 06:27:38;;;;;;;78.57;19.10;;;5.30;99.90;;;;;;5048465;28;20256;-86
2022/11/27 06:30:07;;;;;;;78.90;20.70;;;5.20;99.90;;;;;;5048021;28;20428;-88
2022/11/27 06:32:33;;;;;;;74.75;17.92;;;5.30;99.90;;;;;;5048199;28;20607;-86
2022/11/27 06:34:58;;;;;;;80.87;18.97;;;5.30;99.90;;;;;;5046941;28;20161;-86
2022/11/27 06:37:24;;;;;;;74.67;17.00;;;5.30;99.90;;;;;;5047619;28;20161;-86
2022/11/27 06:39:50;;;;;;;74.47;16.23;;;5.30;99.90;;;;;;5046095;28;20281;-86
2022/11/27 06:42:16;;;;;;;79.88;17.60;;;5.30;99.90;;;;;;5048374;28;20176;-86
2022/11/27 06:44:41;;;;;;;76.10;19.40;;;5.30;99.90;;;;;;5047929;28;20193;-86
2022/11/27 06:47:10;;;;;;;78.03;19.30;;;5.30;99.90;;;;;;5047567;28;20169;-86
2022/11/27 06:49:36;;;;;;;79.15;20.00;;;5.30;99.90;;;;;;5047658;28;20189;-86
2022/11/27 06:52:01;;;;;;;78.03;20.20;;;5.30;99.90;;;;;;5047717;28;20157;-86
2022/11/27 06:54:27;;;;;;;75.10;16.50;;;5.30;99.90;;;;;;5047891;28;20232;-86
2022/11/27 06:56:53;;;;;;;75.43;16.00;;;5.30;99.90;;;;;;5048607;28;20196;-86
2022/11/27 06:59:19;;;;;;;74.57;19.50;;;5.40;99.90;;;;;;5046320;28;20439;-86
2022/11/27 07:01:47;;;;;;;74.13;17.07;;;5.40;99.90;;;;;;5048418;28;20178;-86
2022/11/27 07:04:14;;;;;;;88.75;34.60;;;5.40;99.90;;;;;;5047789;28;20457;-86
2022/11/27 07:06:41;;;;;;;77.60;19.92;;;5.30;99.90;;;;;;5048075;28;20225;-86
2022/11/27 07:09:07;;;;;;;75.00;14.43;;;5.40;99.90;;;;;;5047862;28;20598;-86
2022/11/27 07:11:33;;;;;;;75.70;17.50;;;5.40;99.90;;;;;;5047205;28;20193;-86
2022/11/27 07:14:03;;;;;;;79.55;18.20;;;5.40;99.90;;;;;;5045602;28;20404;-84
2022/11/27 07:16:32;;;;;;;81.25;20.50;;;5.40;99.90;;;;;;5047394;28;20168;-85
2022/11/27 07:19:00;;;;;;;77.38;18.77;;;5.50;99.90;;;;;;5046992;28;20562;-85
2022/11/27 07:21:27;;;;;;;75.43;17.42;;;5.50;99.90;;;;;;5047367;28;20192;-85
2022/11/27 07:23:53;;;;;;;75.68;16.42;;;5.50;99.90;;;;;;5046294;28;20251;-85
2022/11/27 07:26:36;;;;;;;76.25;16.70;;;5.50;99.90;;;;;;5047960;28;20169;-85
2022/11/27 07:29:02;;;;;;;76.75;21.60;;;5.50;99.90;;;;;;5047789;28;20156;-87
2022/11/27 07:31:29;;;;;;;75.97;18.50;;;5.60;99.90;;;;;;5044895;28;20280;-87
2022/11/27 07:33:55;;;;;;;76.93;19.90;;;5.60;99.90;;;;;;5045832;28;20435;-86
2022/11/27 07:36:27;;;;;;;77.80;21.45;;;5.60;99.90;;;;;;5047202;28;20547;-87
2022/11/27 07:38:53;;;;;;;74.70;20.42;;;5.60;99.90;;;;;;5046720;28;20488;-87
2022/11/27 07:41:19;;;;;;;76.30;17.58;;;5.70;99.90;;;;;;5045430;28;20181;-87
2022/11/27 07:43:45;;;;;;;79.20;16.33;;;5.70;99.90;;;;;;5041552;28;20219;-86
2022/11/27 07:46:22;;;;;;;74.82;17.80;;;5.70;99.90;;;;;;5029083;28;20435;-87
2022/11/27 07:48:50;;;;;;;71.88;16.30;;;5.70;99.90;;;;;;5047193;28;20181;-87
2022/11/27 07:51:18;;;;;;;71.97;14.73;;;5.80;99.90;;;;;;5047031;28;20193;-87
2022/11/27 07:53:45;;;;;;;74.85;18.98;;;5.80;99.90;;;;;;5046700;28;20169;-87
2022/11/27 07:56:14;;;;;;;73.40;18.33;;;5.90;99.90;;;;;;5045053;28;20173;-87
2022/11/27 07:58:40;;;;;;;81.15;29.65;;;5.90;99.90;;;;;;5045821;28;20165;-87
2022/11/27 08:01:08;;;;;;;73.60;19.60;;;5.90;99.90;;;;;;5046424;28;20192;-86
2022/11/27 08:03:34;;;;;;;76.53;19.85;;;5.90;99.90;;;;;;5045848;28;20450;-87
2022/11/27 08:05:59;;;;;;;74.00;16.27;;;6.00;99.90;;;;;;5046350;28;20212;-86
2022/11/27 08:08:25;;;;;;;73.07;18.27;;;6.00;99.90;;;;;;5046207;28;20229;-87
2022/11/27 08:10:51;;;;;;;77.97;22.03;;;6.00;99.90;;;;;;5044242;28;20193;-86
2022/11/27 08:13:19;;;;;;;72.73;16.10;;;6.00;99.90;;;;;;5045939;28;20169;-87
2022/11/27 08:15:46;;;;;;;79.82;34.00;;;6.10;99.90;;;;;;5045099;28;20172;-87
2022/11/27 08:18:11;;;;;;;72.07;14.77;;;6.10;99.90;;;;;;5046320;28;20149;-87
2022/11/27 08:20:37;;;;;;;74.17;14.27;;;6.10;99.90;;;;;;5044326;28;20243;-87
2022/11/27 08:23:03;;;;;;;74.20;11.33;;;6.10;99.90;;;;;;5043001;28;20284;-87
2022/11/27 08:25:29;;;;;;;70.30;12.30;;;6.20;99.90;;;;;;5044936;28;20168;-86
2022/11/27 08:27:55;;;;;;;69.18;9.65;;;6.30;99.90;;;;;;5043551;28;20174;-87
2022/11/27 08:30:22;;;;;;;70.80;9.60;;;6.30;99.90;;;;;;5042614;28;20234;-86
2022/11/27 08:32:48;;;;;;;71.20;9.65;;;6.40;99.90;;;;;;5045229;28;20165;-87
2022/11/27 08:35:13;;;;;;;86.10;11.23;;;6.40;99.90;;;;;;5043495;28;20178;-87
2022/11/27 08:37:39;;;;;;;72.07;10.83;;;6.40;99.90;;;;;;5044626;28;20172;-87
2022/11/27 08:40:06;;;;;;;76.20;11.33;;;6.50;99.90;;;;;;5045583;28;20189;-87
2022/11/27 08:42:31;;;;;;;73.88;11.77;;;6.50;99.90;;;;;;5045247;28;20176;-87
2022/11/27 08:44:57;;;;;;;74.57;12.20;;;6.60;99.90;;;;;;5044901;28;20546;-87
2022/11/27 08:47:26;;;;;;;75.40;12.50;;;6.60;99.90;;;;;;5043378;28;20180;-87
2022/11/27 08:49:52;;;;;;;72.07;10.77;;;6.60;99.90;;;;;;5043431;28;20209;-87
2022/11/27 08:52:17;;;;;;;76.03;13.55;;;6.60;99.90;;;;;;5044815;28;20166;-86
2022/11/27 08:54:43;;;;;;;74.30;11.97;;;6.70;99.90;;;;;;5044954;28;20173;-87
2022/11/27 08:57:09;;;;;;;71.10;12.53;;;6.80;99.90;;;;;;5043904;28;20180;-87
2022/11/27 08:59:34;;;;;;;72.33;12.37;;;6.80;99.90;;;;;;5043196;28;20558;-88
2022/11/27 09:02:00;;;;;;;74.57;12.87;;;6.80;99.90;;;;;;5044022;28;20157;-88
2022/11/27 09:04:27;;;;;;;72.47;14.77;;;6.80;99.90;;;;;;5043150;28;20251;-88
2022/11/27 09:06:56;;;;;;;73.63;12.52;;;6.90;99.90;;;;;;5043905;28;20161;-88
2022/11/27 09:09:22;;;;;;;73.95;11.75;;;6.90;99.90;;;;;;5042949;28;20658;-87
2022/11/27 09:11:47;;;;;;;72.93;13.27;;;6.90;99.90;;;;;;5042407;28;20177;-87
2022/11/27 09:14:13;;;;;;;73.70;11.60;;;6.90;99.90;;;;;;5041842;28;20173;-86
2022/11/27 09:16:38;;;;;;;74.07;14.30;;;6.90;99.90;;;;;;5044300;28;20247;-86
2022/11/27 09:19:04;;;;;;;72.30;12.73;;;6.90;99.90;;;;;;5044935;28;20177;-86
2022/11/27 09:21:30;;;;;;;73.63;12.53;;;6.90;99.90;;;;;;5044670;28;20185;-87
2022/11/27 09:23:58;;;;;;;73.97;11.50;;;7.00;99.90;;;;;;5044124;28;20193;-87
2022/11/27 09:26:25;;;;;;;72.63;12.50;;;7.00;99.90;;;;;;5044549;28;20157;-87
2022/11/27 09:28:52;;;;;;;71.28;10.80;;;7.00;99.90;;;;;;5044823;28;20168;-87
2022/11/27 09:31:25;;;;;;;72.95;9.77;;;7.10;99.90;;;;;;5043244;28;20185;-86
2022/11/27 09:33:50;;;;;;;72.80;9.55;;;7.10;99.90;;;;;;5043162;28;20181;-87
2022/11/27 09:36:22;;;;;;;73.67;9.37;;;7.20;99.90;;;;;;5044378;28;20256;-86
2022/11/27 09:38:49;;;;;;;73.53;9.80;;;7.30;99.90;;;;;;5044574;28;20150;-87
2022/11/27 09:41:46;;;;;;;76.30;9.20;;;7.30;99.90;;;;;;5042850;28;20185;-87
2022/11/27 09:44:47;;;;;;;74.90;9.23;;;7.30;99.90;;;;;;5048120;28;20173;-86
2022/11/27 09:47:33;;;;;;;74.05;9.15;;;7.40;99.90;;;;;;5046060;28;20161;-86
2022/11/27 09:50:06;;;;;;;74.75;12.45;;;7.40;99.90;;;;;;5046331;28;20744;-86
2022/11/27 09:52:43;;;;;;;71.72;7.35;;;7.50;99.90;;;;;;5047471;28;20169;-87
2022/11/27 09:55:23;;;;;;;72.97;9.30;;;7.50;99.90;;;;;;5046383;28;20158;-87
2022/11/27 09:58:11;;;;;;;79.07;8.75;;;7.60;99.90;;;;;;5046997;28;20161;-87
2022/11/27 10:00:37;;;;;;;70.65;9.25;;;7.80;99.90;;;;;;5046471;28;20220;-87
2022/11/27 10:03:10;;;;;;;71.00;8.87;;;7.80;99.90;;;;;;5046125;28;20185;-86
2022/11/27 10:05:47;;;;;;;75.00;9.13;;;7.90;99.90;;;;;;5045346;28;20149;-87
2022/11/27 10:08:30;;;;;;;73.22;9.20;;;8.00;99.90;;;;;;5046999;28;20141;-87
2022/11/27 10:11:24;;;;;;;73.03;9.60;;;7.90;99.90;;;;;;5045731;28;20173;-87
2022/11/27 10:14:01;;;;;;;72.60;10.23;;;8.00;99.90;;;;;;5044966;28;20149;-87
2022/11/27 10:16:49;;;;;;;71.32;9.65;;;8.10;99.90;;;;;;5043781;28;20164;-86
2022/11/27 10:19:33;;;;;;;75.03;9.05;;;8.00;99.90;;;;;;5044219;28;20211;-86
2022/11/27 10:22:12;;;;;;;70.55;8.85;;;8.10;99.90;;;;;;5042437;28;20161;-87
2022/11/27 10:24:54;;;;;;;73.22;9.32;;;8.00;99.90;;;;;;5043533;28;20527;-86
2022/11/27 10:27:45;;;;;;;75.05;10.02;;;8.10;99.90;;;;;;5042593;28;20157;-87
2022/11/27 10:30:20;;;;;;;72.55;9.70;;;8.10;99.90;;;;;;5043076;28;20182;-87
2022/11/27 10:32:55;;;;;;;78.80;8.98;;;8.10;99.90;;;;;;5042988;28;20160;-86
2022/11/27 10:35:24;;;;;;;74.72;10.48;;;8.10;99.90;;;;;;5042736;28;20176;-87
2022/11/27 10:38:11;;;;;;;73.82;10.57;;;8.20;99.90;;;;;;5042384;28;20247;-87
2022/11/27 10:41:13;;;;;;;76.40;10.93;;;8.20;99.90;;;;;;5041891;28;20192;-87
2022/11/27 10:43:38;;;;;;;75.75;10.25;;;8.10;99.90;;;;;;5044303;28;20187;-87
2022/11/27 10:46:13;;;;;;;73.80;10.80;;;8.10;99.90;;;;;;5043393;28;20161;-87
2022/11/27 10:48:39;;;;;;;74.15;10.10;;;8.10;99.90;;;;;;5042127;28;20145;-87
2022/11/27 10:51:22;;;;;;;77.13;10.50;;;8.20;99.90;;;;;;5040276;28;20200;-88
2022/11/27 10:53:52;;;;;;;78.05;10.82;;;8.20;99.90;;;;;;5040139;28;20392;-88
2022/11/27 10:56:48;;;;;;;81.07;11.25;;;8.20;99.90;;;;;;5040144;28;20191;-88
2022/11/27 10:59:31;;;;;;;76.43;8.93;;;8.20;99.90;;;;;;5038789;28;20188;-87
2022/11/27 11:01:58;;;;;;;77.43;9.18;;;8.30;99.90;;;;;;5038970;28;20192;-87
2022/11/27 11:04:29;;;;;;;75.50;9.77;;;8.40;99.90;;;;;;5038612;28;20193;-88
2022/11/27 11:06:56;;;;;;;75.45;9.90;;;8.30;99.90;;;;;;5039340;28;20610;-88
2022/11/27 11:09:30;;;;;;;72.47;9.60;;;8.30;99.90;;;;;;5039839;28;20165;-88
2022/11/27 11:12:19;;;;;;;72.80;9.35;;;8.40;99.90;;;;;;5039476;28;20156;-88
2022/11/27 11:14:51;;;;;;;75.60;9.38;;;8.40;99.90;;;;;;5039504;28;20210;-88
2022/11/27 11:17:17;;;;;;;74.18;9.48;;;8.40;99.90;;;;;;5038327;28;20173;-88
2022/11/27 11:19:44;;;;;;;73.65;10.27;;;8.40;99.90;;;;;;5039814;28;20189;-88
2022/11/27 11:22:17;;;;;;;84.88;11.10;;;8.40;99.90;;;;;;5038311;28;20685;-88
2022/11/27 11:24:51;;;;;;;72.40;10.93;;;8.40;99.90;;;;;;5039076;28;20189;-88
2022/11/27 11:27:29;;;;;;;71.18;10.30;;;8.30;99.90;;;;;;5039551;28;20538;-88
2022/11/27 11:30:06;;;;;;;75.32;10.10;;;8.40;99.90;;;;;;5036534;28;20238;-87
2022/11/27 11:32:35;;;;;;;72.63;10.25;;;8.40;99.90;;;;;;5039164;28;20153;-87
2022/11/27 11:35:21;;;;;;;74.28;9.43;;;8.40;99.90;;;;;;5038634;28;20177;-87
2022/11/27 11:37:47;;;;;;;72.38;9.32;;;8.40;99.90;;;;;;5037863;28;20728;-88
2022/11/27 11:40:12;;;;;;;78.03;10.40;;;8.40;99.90;;;;;;5038437;28;20188;-87
2022/11/27 11:43:19;;;;;;;73.47;10.40;;;8.40;99.90;;;;;;5036864;28;20243;-87
2022/11/27 11:45:47;;;;;;;74.85;11.63;;;8.40;99.90;;;;;;5038428;28;20195;-88
2022/11/27 11:48:26;;;;;;;72.93;9.32;;;8.30;99.90;;;;;;5036330;28;20169;-87
2022/11/27 11:51:16;;;;;;;74.30;9.80;;;8.40;99.90;;;;;;5207727;22;20225;-87
2022/11/27 11:53:44;;;;;;;71.65;9.77;;;8.30;99.90;;;;;;5037433;28;20157;-87
2022/11/27 11:56:37;;;;;;;75.20;8.63;;;8.40;99.90;;;;;;5037498;28;20184;-86
2022/11/27 11:59:11;;;;;;;72.47;8.48;;;8.40;99.90;;;;;;5037042;28;20196;-87
2022/11/27 12:02:22;;;;;;;70.78;8.82;;;8.40;99.90;;;;;;5036212;28;20627;-87
2022/11/27 12:05:02;;;;;;;71.43;8.85;;;8.50;99.90;;;;;;5030013;28;20752;-87
2022/11/27 12:07:52;;;;;;;70.30;8.00;;;8.60;99.90;;;;;;5037795;28;20149;-87
2022/11/27 12:10:26;;;;;;;71.05;9.90;;;8.60;99.90;;;;;;5036801;28;20200;-88
2022/11/27 12:13:13;;;;;;;73.35;8.85;;;8.70;99.90;;;;;;5038023;28;20506;-87
2022/11/27 12:16:14;;;;;;;74.50;8.15;;;8.70;99.90;;;;;;5037277;28;20218;-86
2022/11/27 12:19:02;;;;;;;68.07;6.85;;;8.80;99.90;;;;;;5026060;28;20188;-87
2022/11/27 12:21:47;;;;;;;71.88;6.25;;;8.80;99.90;;;;;;5037067;28;20188;-87
2022/11/27 12:24:13;;;;;;;70.30;6.75;;;8.90;99.90;;;;;;5037481;28;20185;-87
2022/11/27 12:27:22;;;;;;;69.00;7.30;;;8.90;99.90;;;;;;5037259;28;20577;-87
2022/11/27 12:30:16;;;;;;;69.32;7.10;;;8.90;99.90;;;;;;5037199;28;20177;-87
2022/11/27 12:32:56;;;;;;;76.90;7.90;;;9.00;99.90;;;;;;5037137;28;20267;-87
2022/11/27 12:35:56;;;;;;;70.38;6.70;;;8.90;99.90;;;;;;5035604;28;20336;-87
2022/11/27 12:38:56;;;;;;;69.60;6.93;;;8.90;99.90;;;;;;5028361;28;20180;-87
2022/11/27 12:42:00;;;;;;;70.68;6.70;;;8.90;99.90;;;;;;5036519;28;20208;-87
2022/11/27 12:44:52;;;;;;;69.78;7.10;;;9.00;99.90;;;;;;5035159;28;20204;-86
2022/11/27 12:47:35;;;;;;;68.88;7.75;;;9.00;99.90;;;;;;5035574;28;20171;-87
2022/11/27 12:50:19;;;;;;;74.68;8.35;;;9.00;99.90;;;;;;5035458;28;20200;-87
2022/11/27 12:52:56;;;;;;;70.60;8.13;;;9.00;99.90;;;;;;5035742;28;20172;-87
2022/11/27 12:55:27;;;;;;;68.90;7.68;;;9.00;99.90;;;;;;5037213;28;20153;-87
2022/11/27 12:58:19;;;;;;;70.88;8.07;;;9.00;99.90;;;;;;5036621;28;20182;-87
2022/11/27 13:00:48;;;;;;;70.63;7.68;;;9.00;99.90;;;;;;5035267;28;20280;-87
2022/11/27 13:03:51;;;;;;;70.53;8.43;;;9.00;99.90;;;;;;5035246;28;20197;-87
2022/11/27 13:06:22;;;;;;;71.63;7.38;;;9.00;99.90;;;;;;5036658;28;20569;-87
2022/11/27 13:08:48;;;;;;;70.20;7.97;;;9.10;99.90;;;;;;5036522;28;20639;-88
2022/11/27 13:11:16;;;;;;;70.67;8.00;;;9.10;99.90;;;;;;5035388;28;20243;-88
2022/11/27 13:13:52;;;;;;;73.80;7.82;;;9.00;99.90;;;;;;5036648;28;20170;-88
2022/11/27 13:16:30;;;;;;;72.88;8.52;;;9.10;99.90;;;;;;5037094;28;20615;-88
2022/11/27 13:19:18;;;;;;;71.13;7.40;;;9.10;99.90;;;;;;5039761;28;20169;-88
2022/11/27 13:21:46;;;;;;;72.03;7.13;;;9.10;99.90;;;;;;5039694;28;20189;-85
2022/11/27 13:24:13;;;;;;;71.05;7.45;;;9.20;99.90;;;;;;5041370;28;20192;-86
2022/11/27 13:27:12;;;;;;;69.75;7.00;;;9.20;99.90;;;;;;5041600;28;20607;-86
2022/11/27 13:29:44;;;;;;;75.97;6.65;;;9.20;99.90;;;;;;5041491;28;20275;-87
2022/11/27 13:32:21;;;;;;;70.45;7.13;;;9.30;99.90;;;;;;5042455;28;20189;-84
2022/11/27 13:34:50;;;;;;;68.93;7.35;;;9.20;99.90;;;;;;5041591;28;20180;-85
2022/11/27 13:37:39;;;;;;;71.47;7.38;;;9.20;99.90;;;;;;5023356;28;20173;-87